sensor_id;sensor_type;location;lat;lon;timestamp;pressure;altitude;pressure_sealevel;temperature;humidity
69980;BME280;57318;56.232;43.944;2022-10-22T00:01:11;99593.41;;;-1.30;83.42
69980;BME280;57318;56.232;43.944;2022-10-22T00:03:37;99587.34;;;-1.30;83.27
69980;BME280;57318;56.232;43.944;2022-10-22T00:06:03;99588.16;;;-1.28;82.98
69980;BME280;57318;56.232;43.944;2022-10-22T00:08:28;99577.72;;;-1.28;82.63
69980;BME280;57318;56.232;43.944;2022-10-22T00:10:54;99582.09;;;-1.29;82.43
69980;BME280;57318;56.232;43.944;2022-10-22T00:13:20;99583.03;;;-1.31;82.05
69980;BME280;57318;56.232;43.944;2022-10-22T00:15:46;99580.50;;;-1.34;81.73
69980;BME280;57318;56.232;43.944;2022-10-22T00:18:11;99589.22;;;-1.35;81.66
69980;BME280;57318;56.232;43.944;2022-10-22T00:20:37;99587.53;;;-1.36;81.67
69980;BME280;57318;56.232;43.944;2022-10-22T00:23:02;99593.59;;;-1.36;81.06
69980;BME280;57318;56.232;43.944;2022-10-22T00:25:28;99589.31;;;-1.38;81.11
69980;BME280;57318;56.232;43.944;2022-10-22T00:27:54;99594.69;;;-1.43;81.18
69980;BME280;57318;56.232;43.944;2022-10-22T00:30:19;99580.88;;;-1.47;81.08
69980;BME280;57318;56.232;43.944;2022-10-22T00:32:45;99587.03;;;-1.49;80.81
69980;BME280;57318;56.232;43.944;2022-10-22T00:35:10;99589.56;;;-1.46;81.27
69980;BME280;57318;56.232;43.944;2022-10-22T00:37:36;99588.69;;;-1.47;80.96
69980;BME280;57318;56.232;43.944;2022-10-22T00:40:03;99588.63;;;-1.45;80.67
69980;BME280;57318;56.232;43.944;2022-10-22T00:42:29;99594.75;;;-1.46;80.29
69980;BME280;57318;56.232;43.944;2022-10-22T00:45:15;99597.41;;;-1.48;80.18
69980;BME280;57318;56.232;43.944;2022-10-22T00:47:48;99578.28;;;-1.48;79.99
69980;BME280;57318;56.232;43.944;2022-10-22T00:50:20;99591.28;;;-1.47;79.71
69980;BME280;57318;56.232;43.944;2022-10-22T00:52:46;99593.00;;;-1.46;79.39
69980;BME280;57318;56.232;43.944;2022-10-22T00:55:13;99591.28;;;-1.47;79.20
69980;BME280;57318;56.232;43.944;2022-10-22T00:57:39;99593.84;;;-1.45;79.27
69980;BME280;57318;56.232;43.944;2022-10-22T01:00:06;99600.75;;;-1.42;78.97
69980;BME280;57318;56.232;43.944;2022-10-22T01:02:32;99598.13;;;-1.42;78.76
69980;BME280;57318;56.232;43.944;2022-10-22T01:04:57;99598.13;;;-1.42;78.09
69980;BME280;57318;56.232;43.944;2022-10-22T01:07:24;99600.75;;;-1.42;78.09
69980;BME280;57318;56.232;43.944;2022-10-22T01:10:02;99600.81;;;-1.46;78.03
69980;BME280;57318;56.232;43.944;2022-10-22T01:13:00;99600.94;;;-1.50;78.10
69980;BME280;57318;56.232;43.944;2022-10-22T01:15:31;99602.78;;;-1.54;78.18
69980;BME280;57318;56.232;43.944;2022-10-22T01:20:50;99605.31;;;-1.51;77.74
69980;BME280;57318;56.232;43.944;2022-10-22T01:26:04;99612.38;;;-1.56;77.55
69980;BME280;57318;56.232;43.944;2022-10-22T01:33:56;99616.81;;;-1.58;77.32
69980;BME280;57318;56.232;43.944;2022-10-22T01:36:25;99618.34;;;-1.51;77.00
69980;BME280;57318;56.232;43.944;2022-10-22T01:38:52;99622.47;;;-1.43;76.22
69980;BME280;57318;56.232;43.944;2022-10-22T01:41:19;99621.50;;;-1.39;75.92
69980;BME280;57318;56.232;43.944;2022-10-22T01:43:45;99620.38;;;-1.31;75.44
69980;BME280;57318;56.232;43.944;2022-10-22T01:46:11;99621.13;;;-1.25;74.42
69980;BME280;57318;56.232;43.944;2022-10-22T01:49:06;99629.75;;;-1.23;72.68
69980;BME280;57318;56.232;43.944;2022-10-22T01:52:02;99625.19;;;-1.17;72.91
69980;BME280;57318;56.232;43.944;2022-10-22T01:54:51;99619.81;;;-1.11;72.27
69980;BME280;57318;56.232;43.944;2022-10-22T01:57:32;99619.56;;;-1.03;72.15
69980;BME280;57318;56.232;43.944;2022-10-22T02:00:13;99622.00;;;-0.97;71.22
69980;BME280;57318;56.232;43.944;2022-10-22T02:05:35;99623.72;;;-0.96;71.12
69980;BME280;57318;56.232;43.944;2022-10-22T02:08:09;99626.38;;;-0.97;71.07
69980;BME280;57318;56.232;43.944;2022-10-22T02:10:40;99626.44;;;-0.99;70.92
69980;BME280;57318;56.232;43.944;2022-10-22T02:13:09;99626.56;;;-1.03;71.05
69980;BME280;57318;56.232;43.944;2022-10-22T02:15:37;99628.34;;;-1.05;71.24
69980;BME280;57318;56.232;43.944;2022-10-22T02:18:05;99630.16;;;-1.07;71.08
69980;BME280;57318;56.232;43.944;2022-10-22T02:20:34;99632.94;;;-1.14;71.12
69980;BME280;57318;56.232;43.944;2022-10-22T02:23:01;99640.78;;;-1.15;71.18
69980;BME280;57318;56.232;43.944;2022-10-22T02:25:31;99641.75;;;-1.18;71.22
69980;BME280;57318;56.232;43.944;2022-10-22T02:28:08;99640.88;;;-1.18;71.67
69980;BME280;57318;56.232;43.944;2022-10-22T02:30:41;99643.50;;;-1.18;71.48
69980;BME280;57318;56.232;43.944;2022-10-22T02:33:28;99644.38;;;-1.18;71.79
69980;BME280;57318;56.232;43.944;2022-10-22T02:35:55;99651.19;;;-1.14;71.44
69980;BME280;57318;56.232;43.944;2022-10-22T02:38:23;99651.91;;;-1.09;71.05
69980;BME280;57318;56.232;43.944;2022-10-22T02:40:50;99651.75;;;-1.04;69.96
69980;BME280;57318;56.232;43.944;2022-10-22T02:43:17;99653.44;;;-1.01;69.64
69980;BME280;57318;56.232;43.944;2022-10-22T02:45:43;99655.97;;;-0.98;70.17
69980;BME280;57318;56.232;43.944;2022-10-22T02:48:09;99651.59;;;-0.98;69.97
69980;BME280;57318;56.232;43.944;2022-10-22T02:50:34;99652.47;;;-0.97;70.38
69980;BME280;57318;56.232;43.944;2022-10-22T02:53:00;99659.47;;;-0.99;70.15
69980;BME280;57318;56.232;43.944;2022-10-22T02:55:26;99656.91;;;-1.01;70.34
69980;BME280;57318;56.232;43.944;2022-10-22T02:57:52;99662.06;;;-0.99;70.22
69980;BME280;57318;56.232;43.944;2022-10-22T03:00:18;99655.03;;;-0.96;69.69
69980;BME280;57318;56.232;43.944;2022-10-22T03:02:43;99655.78;;;-0.92;69.95
69980;BME280;57318;56.232;43.944;2022-10-22T03:05:09;99666.19;;;-0.91;69.64
69980;BME280;57318;56.232;43.944;2022-10-22T03:07:35;99660.03;;;-0.88;69.80
69980;BME280;57318;56.232;43.944;2022-10-22T03:10:01;99662.63;;;-0.88;69.67
69980;BME280;57318;56.232;43.944;2022-10-22T03:12:26;99657.41;;;-0.88;69.59
69980;BME280;57318;56.232;43.944;2022-10-22T03:14:52;99660.72;;;-0.83;68.83
69980;BME280;57318;56.232;43.944;2022-10-22T03:17:17;99658.81;;;-0.78;68.26
69980;BME280;57318;56.232;43.944;2022-10-22T03:19:43;99660.28;;;-0.67;67.63
69980;BME280;57318;56.232;43.944;2022-10-22T03:22:13;99663.34;;;-0.55;66.19
69980;BME280;57318;56.232;43.944;2022-10-22T03:24:49;99659.53;;;-0.44;65.51
69980;BME280;57318;56.232;43.944;2022-10-22T03:27:17;99662.84;;;-0.38;64.70
69980;BME280;57318;56.232;43.944;2022-10-22T03:29:45;99664.38;;;-0.32;64.65
69980;BME280;57318;56.232;43.944;2022-10-22T03:32:11;99666.06;;;-0.29;64.37
69980;BME280;57318;56.232;43.944;2022-10-22T03:34:37;99661.56;;;-0.26;63.89
69980;BME280;57318;56.232;43.944;2022-10-22T03:37:03;99669.25;;;-0.21;64.12
69980;BME280;57318;56.232;43.944;2022-10-22T03:39:30;99671.78;;;-0.18;64.31
69980;BME280;57318;56.232;43.944;2022-10-22T03:41:57;99676.09;;;-0.17;64.11
69980;BME280;57318;56.232;43.944;2022-10-22T03:44:23;99670.97;;;-0.20;64.33
69980;BME280;57318;56.232;43.944;2022-10-22T03:46:50;99682.28;;;-0.20;64.66
69980;BME280;57318;56.232;43.944;2022-10-22T03:49:16;99679.72;;;-0.21;64.71
69980;BME280;57318;56.232;43.944;2022-10-22T03:51:48;99682.41;;;-0.24;65.02
69980;BME280;57318;56.232;43.944;2022-10-22T03:54:16;99682.41;;;-0.24;65.07
69980;BME280;57318;56.232;43.944;2022-10-22T03:56:42;99679.75;;;-0.23;64.90
69980;BME280;57318;56.232;43.944;2022-10-22T03:59:09;99675.38;;;-0.22;65.89
69980;BME280;57318;56.232;43.944;2022-10-22T04:01:50;99681.53;;;-0.23;66.11
69980;BME280;57318;56.232;43.944;2022-10-22T04:04:16;99676.34;;;-0.25;66.02
69980;BME280;57318;56.232;43.944;2022-10-22T04:06:41;99679.75;;;-0.23;66.05
69980;BME280;57318;56.232;43.944;2022-10-22T04:09:07;99678.88;;;-0.22;66.74
69980;BME280;57318;56.232;43.944;2022-10-22T04:11:32;99678.00;;;-0.22;66.77
69980;BME280;57318;56.232;43.944;2022-10-22T04:13:58;99681.47;;;-0.22;66.98
69980;BME280;57318;56.232;43.944;2022-10-22T04:16:24;99684.94;;;-0.21;67.87
69980;BME280;57318;56.232;43.944;2022-10-22T04:18:55;99683.22;;;-0.22;67.68
69980;BME280;57318;56.232;43.944;2022-10-22T04:21:22;99686.66;;;-0.20;67.39
69980;BME280;57318;56.232;43.944;2022-10-22T04:23:51;99697.94;;;-0.20;67.84
69980;BME280;57318;56.232;43.944;2022-10-22T04:26:17;99697.00;;;-0.17;67.79
69980;BME280;57318;56.232;43.944;2022-10-22T04:28:44;99698.69;;;-0.16;67.61
69980;BME280;57318;56.232;43.944;2022-10-22T04:31:12;99697.69;;;-0.12;67.70
69980;BME280;57318;56.232;43.944;2022-10-22T04:33:39;99700.16;;;-0.07;67.70
69980;BME280;57318;56.232;43.944;2022-10-22T04:36:09;99694.84;;;-0.04;67.51
69980;BME280;57318;56.232;43.944;2022-10-22T04:38:37;99697.34;;;-0.01;67.23
69980;BME280;57318;56.232;43.944;2022-10-22T04:41:16;99702.34;;;0.07;66.96
69980;BME280;57318;56.232;43.944;2022-10-22T04:43:43;99697.81;;;0.12;66.94
69980;BME280;57318;56.232;43.944;2022-10-22T04:46:10;99699.44;;;0.16;67.31
69980;BME280;57318;56.232;43.944;2022-10-22T04:48:37;99691.53;;;0.17;67.00
69980;BME280;57318;56.232;43.944;2022-10-22T04:51:05;99696.59;;;0.22;67.30
69980;BME280;57318;56.232;43.944;2022-10-22T04:53:32;99701.69;;;0.27;67.24
69980;BME280;57318;56.232;43.944;2022-10-22T04:56:14;99704.13;;;0.31;67.29
69980;BME280;57318;56.232;43.944;2022-10-22T04:58:47;99710.13;;;0.35;67.14
69980;BME280;57318;56.232;43.944;2022-10-22T05:01:16;99710.91;;;0.37;67.28
69980;BME280;57318;56.232;43.944;2022-10-22T05:03:43;99705.53;;;0.42;67.50
69980;BME280;57318;56.232;43.944;2022-10-22T05:06:09;99711.97;;;0.57;67.44
69980;BME280;57318;56.232;43.944;2022-10-22T05:08:35;99716.03;;;0.65;66.45
69980;BME280;57318;56.232;43.944;2022-10-22T05:13:37;99725.72;;;0.63;67.53
69980;BME280;57318;56.232;43.944;2022-10-22T05:16:03;99726.50;;;0.65;67.63
69980;BME280;57318;56.232;43.944;2022-10-22T05:18:29;99725.56;;;0.68;67.95
69980;BME280;57318;56.232;43.944;2022-10-22T05:20:55;99726.19;;;0.75;68.21
69980;BME280;57318;56.232;43.944;2022-10-22T05:23:20;99723.72;;;1.19;67.55
69980;BME280;57318;56.232;43.944;2022-10-22T05:25:46;99719.75;;;2.43;63.94
69980;BME280;57318;56.232;43.944;2022-10-22T05:28:12;99729.09;;;3.86;59.24
69980;BME280;57318;56.232;43.944;2022-10-22T05:30:37;99730.44;;;5.17;54.73
69980;BME280;57318;56.232;43.944;2022-10-22T05:33:03;99730.91;;;6.21;51.85
69980;BME280;57318;56.232;43.944;2022-10-22T05:35:28;99725.63;;;7.25;49.49
69980;BME280;57318;56.232;43.944;2022-10-22T05:37:54;99739.28;;;8.29;45.75
69980;BME280;57318;56.232;43.944;2022-10-22T05:40:20;99737.66;;;9.20;44.31
69980;BME280;57318;56.232;43.944;2022-10-22T05:42:45;99739.53;;;9.44;42.64
69980;BME280;57318;56.232;43.944;2022-10-22T05:45:11;99740.59;;;9.91;42.98
69980;BME280;57318;56.232;43.944;2022-10-22T05:47:36;99740.66;;;10.39;41.03
69980;BME280;57318;56.232;43.944;2022-10-22T05:50:02;99736.88;;;10.66;40.27
69980;BME280;57318;56.232;43.944;2022-10-22T05:52:28;99737.16;;;10.86;39.18
69980;BME280;57318;56.232;43.944;2022-10-22T05:54:54;99742.25;;;11.00;39.03
69980;BME280;57318;56.232;43.944;2022-10-22T05:57:19;99746.88;;;11.20;37.91
69980;BME280;57318;56.232;43.944;2022-10-22T05:59:45;99745.44;;;11.28;37.79
69980;BME280;57318;56.232;43.944;2022-10-22T06:02:11;99742.78;;;11.50;38.00
69980;BME280;57318;56.232;43.944;2022-10-22T06:04:36;99750.16;;;11.92;36.36
69980;BME280;57318;56.232;43.944;2022-10-22T06:07:02;99743.84;;;11.93;36.71
69980;BME280;57318;56.232;43.944;2022-10-22T06:09:32;99749.09;;;12.27;36.10
69980;BME280;57318;56.232;43.944;2022-10-22T06:12:00;99748.53;;;11.89;35.95
69980;BME280;57318;56.232;43.944;2022-10-22T06:14:26;99748.53;;;11.89;36.29
69980;BME280;57318;56.232;43.944;2022-10-22T06:16:52;99750.75;;;11.96;36.29
69980;BME280;57318;56.232;43.944;2022-10-22T06:19:20;99749.84;;;12.18;36.63
69980;BME280;57318;56.232;43.944;2022-10-22T06:21:46;99757.63;;;12.95;35.89
69980;BME280;57318;56.232;43.944;2022-10-22T06:24:12;99751.09;;;13.61;34.75
69980;BME280;57318;56.232;43.944;2022-10-22T06:26:39;99751.56;;;14.36;34.17
69980;BME280;57318;56.232;43.944;2022-10-22T06:29:05;99758.94;;;14.73;33.04
69980;BME280;57318;56.232;43.944;2022-10-22T06:31:31;99760.59;;;14.84;32.55
69980;BME280;57318;56.232;43.944;2022-10-22T06:34:03;99750.28;;;14.99;32.55
69980;BME280;57318;56.232;43.944;2022-10-22T06:36:28;99752.16;;;14.89;33.01
69980;BME280;57318;56.232;43.944;2022-10-22T06:38:55;99754.00;;;15.36;32.17
69980;BME280;57318;56.232;43.944;2022-10-22T06:41:21;99758.63;;;15.81;31.39
69980;BME280;57318;56.232;43.944;2022-10-22T06:43:47;99755.22;;;16.52;30.59
69980;BME280;57318;56.232;43.944;2022-10-22T06:46:19;99765.38;;;17.03;30.14
69980;BME280;57318;56.232;43.944;2022-10-22T06:48:50;99762.75;;;17.11;29.91
69980;BME280;57318;56.232;43.944;2022-10-22T06:51:16;99766.47;;;17.71;29.02
69980;BME280;57318;56.232;43.944;2022-10-22T06:53:42;99771.22;;;18.28;28.14
69980;BME280;57318;56.232;43.944;2022-10-22T06:56:12;99768.38;;;18.37;27.29
69980;BME280;57318;56.232;43.944;2022-10-22T06:58:39;99774.84;;;18.86;27.15
69980;BME280;57318;56.232;43.944;2022-10-22T07:01:07;99770.38;;;19.59;26.57
69980;BME280;57318;56.232;43.944;2022-10-22T07:03:34;99770.16;;;19.69;26.05
69980;BME280;57318;56.232;43.944;2022-10-22T07:06:00;99776.34;;;20.48;25.00
69980;BME280;57318;56.232;43.944;2022-10-22T07:08:27;99783.50;;;19.54;26.25
69980;BME280;57318;56.232;43.944;2022-10-22T07:10:53;99777.19;;;18.97;26.34
69980;BME280;57318;56.232;43.944;2022-10-22T07:13:19;99776.81;;;19.25;27.17
69980;BME280;57318;56.232;43.944;2022-10-22T07:15:44;99775.50;;;19.13;26.44
69980;BME280;57318;56.232;43.944;2022-10-22T07:18:10;99777.41;;;19.76;26.40
69980;BME280;57318;56.232;43.944;2022-10-22T07:20:35;99778.72;;;20.43;25.70
69980;BME280;57318;56.232;43.944;2022-10-22T07:23:01;99778.66;;;20.51;25.08
69980;BME280;57318;56.232;43.944;2022-10-22T07:25:27;99785.13;;;20.97;24.16
69980;BME280;57318;56.232;43.944;2022-10-22T07:27:52;99785.91;;;21.58;23.75
69980;BME280;57318;56.232;43.944;2022-10-22T07:30:18;99784.78;;;21.68;23.94
69980;BME280;57318;56.232;43.944;2022-10-22T07:32:43;99788.22;;;21.76;24.00
69980;BME280;57318;56.232;43.944;2022-10-22T07:35:09;99781.66;;;21.41;23.22
69980;BME280;57318;56.232;43.944;2022-10-22T07:37:35;99782.78;;;21.32;23.17
69980;BME280;57318;56.232;43.944;2022-10-22T07:40:00;99784.22;;;21.57;22.83
69980;BME280;57318;56.232;43.944;2022-10-22T07:42:26;99783.75;;;20.78;23.41
69980;BME280;57318;56.232;43.944;2022-10-22T07:44:52;99777.47;;;21.38;23.04
69980;BME280;57318;56.232;43.944;2022-10-22T07:47:17;99782.28;;;22.17;21.52
69980;BME280;57318;56.232;43.944;2022-10-22T07:49:43;99781.78;;;21.62;22.32
69980;BME280;57318;56.232;43.944;2022-10-22T07:52:08;99781.47;;;22.17;22.02
69980;BME280;57318;56.232;43.944;2022-10-22T07:54:34;99783.84;;;22.63;21.53
69980;BME280;57318;56.232;43.944;2022-10-22T07:57:00;99781.16;;;22.42;21.43
69980;BME280;57318;56.232;43.944;2022-10-22T07:59:25;99784.56;;;23.15;20.77
69980;BME280;57318;56.232;43.944;2022-10-22T08:01:51;99780.66;;;23.53;20.48
69980;BME280;57318;56.232;43.944;2022-10-22T08:04:16;99774.41;;;23.02;20.23
69980;BME280;57318;56.232;43.944;2022-10-22T08:06:42;99784.88;;;22.26;21.39
69980;BME280;57318;56.232;43.944;2022-10-22T08:09:08;99782.97;;;21.45;22.39
69980;BME280;57318;56.232;43.944;2022-10-22T08:11:33;99772.41;;;20.28;23.50
69980;BME280;57318;56.232;43.944;2022-10-22T08:13:59;99774.06;;;19.58;24.34
69980;BME280;57318;56.232;43.944;2022-10-22T08:16:25;99774.06;;;18.26;25.60
69980;BME280;57318;56.232;43.944;2022-10-22T08:18:50;99768.72;;;17.57;26.87
69980;BME280;57318;56.232;43.944;2022-10-22T08:21:16;99775.06;;;16.59;28.53
69980;BME280;57318;56.232;43.944;2022-10-22T08:23:42;99758.88;;;18.09;26.68
69980;BME280;57318;56.232;43.944;2022-10-22T08:26:09;99765.84;;;16.44;28.61
69980;BME280;57318;56.232;43.944;2022-10-22T08:28:35;99765.59;;;15.64;29.68
69980;BME280;57318;56.232;43.944;2022-10-22T08:31:05;99768.75;;;15.02;31.00
69980;BME280;57318;56.232;43.944;2022-10-22T08:33:32;99763.34;;;14.14;32.51
69980;BME280;57318;56.232;43.944;2022-10-22T08:35:57;99771.94;;;13.67;33.30
69980;BME280;57318;56.232;43.944;2022-10-22T08:38:23;99765.56;;;12.86;34.77
69980;BME280;57318;56.232;43.944;2022-10-22T08:40:55;99768.41;;;12.52;35.56
69980;BME280;57318;56.232;43.944;2022-10-22T08:46:32;99764.53;;;12.77;35.12
69980;BME280;57318;56.232;43.944;2022-10-22T08:49:06;99757.78;;;11.97;36.41
69980;BME280;57318;56.232;43.944;2022-10-22T08:51:34;99767.66;;;12.82;35.90
69980;BME280;57318;56.232;43.944;2022-10-22T08:54:25;99766.38;;;12.65;35.65
69980;BME280;57318;56.232;43.944;2022-10-22T08:59:46;99760.78;;;11.69;37.58
69980;BME280;57318;56.232;43.944;2022-10-22T09:07:40;99762.50;;;12.37;36.80
69980;BME280;57318;56.232;43.944;2022-10-22T09:10:08;99760.69;;;11.82;37.09
69980;BME280;57318;56.232;43.944;2022-10-22T09:12:36;99750.50;;;11.08;38.89
69980;BME280;57318;56.232;43.944;2022-10-22T09:15:02;99757.53;;;10.38;40.44
69980;BME280;57318;56.232;43.944;2022-10-22T09:17:49;99758.06;;;10.55;40.27
69980;BME280;57318;56.232;43.944;2022-10-22T09:25:48;99747.84;;;10.37;40.34
69980;BME280;57318;56.232;43.944;2022-10-22T09:28:16;99743.72;;;10.09;40.64
69980;BME280;57318;56.232;43.944;2022-10-22T09:30:42;99739.25;;;9.72;40.98
69980;BME280;57318;56.232;43.944;2022-10-22T09:33:17;99737.00;;;9.42;41.47
69980;BME280;57318;56.232;43.944;2022-10-22T09:36:02;99741.13;;;9.33;41.83
69980;BME280;57318;56.232;43.944;2022-10-22T09:38:33;99742.53;;;9.26;42.14
69980;BME280;57318;56.232;43.944;2022-10-22T09:41:00;99747.94;;;9.37;42.39
69980;BME280;57318;56.232;43.944;2022-10-22T09:43:27;99742.75;;;9.23;42.83
69980;BME280;57318;56.232;43.944;2022-10-22T09:45:58;99739.47;;;9.32;42.66
69980;BME280;57318;56.232;43.944;2022-10-22T09:48:33;99741.13;;;9.33;42.44
69980;BME280;57318;56.232;43.944;2022-10-22T09:53:38;99745.88;;;8.77;43.56
69980;BME280;57318;56.232;43.944;2022-10-22T09:56:09;99741.59;;;8.48;43.87
69980;BME280;57318;56.232;43.944;2022-10-22T09:58:42;99741.00;;;8.30;44.58
69980;BME280;57318;56.232;43.944;2022-10-22T10:01:16;99737.53;;;8.16;44.93
69980;BME280;57318;56.232;43.944;2022-10-22T10:03:42;99738.22;;;8.05;44.92
69980;BME280;57318;56.232;43.944;2022-10-22T10:06:08;99737.94;;;7.82;46.16
69980;BME280;57318;56.232;43.944;2022-10-22T10:08:33;99738.63;;;7.57;47.21
69980;BME280;57318;56.232;43.944;2022-10-22T10:11:10;99736.44;;;7.64;46.92
69980;BME280;57318;56.232;43.944;2022-10-22T10:19:35;99727.16;;;7.85;46.94
69980;BME280;57318;56.232;43.944;2022-10-22T10:31:11;99732.78;;;7.52;46.56
69980;BME280;57318;56.232;43.944;2022-10-22T10:34:03;99727.97;;;7.44;47.43
69980;BME280;57318;56.232;43.944;2022-10-22T10:39:53;99729.59;;;7.32;47.22
69980;BME280;57318;56.232;43.944;2022-10-22T10:45:34;99735.03;;;6.86;48.54
69980;BME280;57318;56.232;43.944;2022-10-22T10:53:42;99727.97;;;6.86;46.85
69980;BME280;57318;56.232;43.944;2022-10-22T10:56:35;99726.47;;;6.82;46.50
69980;BME280;57318;56.232;43.944;2022-10-22T11:07:25;99717.97;;;6.47;47.65
69980;BME280;57318;56.232;43.944;2022-10-22T11:10:01;99724.16;;;6.62;47.54
69980;BME280;57318;56.232;43.944;2022-10-22T11:12:33;99717.91;;;6.63;47.68
69980;BME280;57318;56.232;43.944;2022-10-22T11:17:52;99720.78;;;6.44;48.13
69980;BME280;57318;56.232;43.944;2022-10-22T11:23:08;99721.72;;;6.43;48.28
69980;BME280;57318;56.232;43.944;2022-10-22T11:25:47;99720.13;;;6.40;48.46
69980;BME280;57318;56.232;43.944;2022-10-22T11:28:24;99722.38;;;6.32;48.81
69980;BME280;57318;56.232;43.944;2022-10-22T11:31:03;99723.75;;;6.23;48.98
69980;BME280;57318;56.232;43.944;2022-10-22T11:33:37;99724.28;;;6.14;49.46
69980;BME280;57318;56.232;43.944;2022-10-22T11:36:08;99720.56;;;6.02;49.71
69980;BME280;57318;56.232;43.944;2022-10-22T11:38:35;99731.28;;;5.99;50.13
69980;BME280;57318;56.232;43.944;2022-10-22T11:41:09;99720.25;;;5.91;49.99
69980;BME280;57318;56.232;43.944;2022-10-22T11:46:43;99727.94;;;5.79;50.46
69980;BME280;57318;56.232;43.944;2022-10-22T11:51:41;99721.56;;;5.68;51.12
69980;BME280;57318;56.232;43.944;2022-10-22T11:57:24;99723.06;;;5.56;51.71
69980;BME280;57318;56.232;43.944;2022-10-22T11:59:58;99726.81;;;5.52;51.70
69980;BME280;57318;56.232;43.944;2022-10-22T12:05:16;99723.91;;;5.40;52.14
69980;BME280;57318;56.232;43.944;2022-10-22T12:10:48;99727.41;;;5.41;52.36
69980;BME280;57318;56.232;43.944;2022-10-22T12:13:24;99719.50;;;5.41;52.52
69980;BME280;57318;56.232;43.944;2022-10-22T12:15:53;99724.06;;;5.37;52.57
69980;BME280;57318;56.232;43.944;2022-10-22T12:18:23;99726.09;;;5.32;52.97
69980;BME280;57318;56.232;43.944;2022-10-22T12:20:52;99722.72;;;5.30;53.45
69980;BME280;57318;56.232;43.944;2022-10-22T12:23:20;99721.16;;;5.26;53.49
69980;BME280;57318;56.232;43.944;2022-10-22T12:25:49;99721.00;;;5.29;53.53
69980;BME280;57318;56.232;43.944;2022-10-22T12:28:14;99720.16;;;5.29;54.46
69980;BME280;57318;56.232;43.944;2022-10-22T12:30:40;99719.22;;;5.30;55.33
69980;BME280;57318;56.232;43.944;2022-10-22T12:33:18;99717.59;;;5.27;55.83
69980;BME280;57318;56.232;43.944;2022-10-22T12:35:45;99717.78;;;5.24;56.08
69980;BME280;57318;56.232;43.944;2022-10-22T12:38:19;99710.94;;;5.20;55.97
69980;BME280;57318;56.232;43.944;2022-10-22T12:40:46;99713.00;;;5.15;55.95
69980;BME280;57318;56.232;43.944;2022-10-22T12:43:29;99722.28;;;5.04;55.74
69980;BME280;57318;56.232;43.944;2022-10-22T12:45:58;99718.38;;;4.96;56.60
69980;BME280;57318;56.232;43.944;2022-10-22T12:48:27;99717.06;;;4.87;56.85
69980;BME280;57318;56.232;43.944;2022-10-22T12:50:56;99720.00;;;4.81;56.94
69980;BME280;57318;56.232;43.944;2022-10-22T12:53:31;99719.41;;;4.76;57.32
69980;BME280;57318;56.232;43.944;2022-10-22T12:56:01;99712.69;;;4.70;57.61
69980;BME280;57318;56.232;43.944;2022-10-22T12:58:33;99715.34;;;4.70;57.79
69980;BME280;57318;56.232;43.944;2022-10-22T13:01:01;99713.78;;;4.66;57.75
69980;BME280;57318;56.232;43.944;2022-10-22T13:03:35;99712.22;;;4.62;58.23
69980;BME280;57318;56.232;43.944;2022-10-22T13:06:24;99703.63;;;4.58;58.17
69980;BME280;57318;56.232;43.944;2022-10-22T13:11:31;99703.88;;;4.54;59.17
69980;BME280;57318;56.232;43.944;2022-10-22T13:14:12;99699.84;;;4.46;59.68
69980;BME280;57318;56.232;43.944;2022-10-22T13:16:40;99704.41;;;4.43;59.81
69980;BME280;57318;56.232;43.944;2022-10-22T13:19:35;99707.13;;;4.41;59.93
69980;BME280;57318;56.232;43.944;2022-10-22T13:22:01;99706.44;;;4.38;60.30
69980;BME280;57318;56.232;43.944;2022-10-22T13:24:26;99704.09;;;4.31;61.17
69980;BME280;57318;56.232;43.944;2022-10-22T13:26:54;99700.84;;;4.26;61.64
69980;BME280;57318;56.232;43.944;2022-10-22T13:29:21;99709.06;;;4.20;61.90
69980;BME280;57318;56.232;43.944;2022-10-22T13:31:50;99704.09;;;4.14;62.27
69980;BME280;57318;56.232;43.944;2022-10-22T13:34:19;99696.50;;;4.08;63.18
69980;BME280;57318;56.232;43.944;2022-10-22T13:36:45;99696.81;;;4.02;62.92
69980;BME280;57318;56.232;43.944;2022-10-22T13:39:22;99689.22;;;3.95;63.35
69980;BME280;57318;56.232;43.944;2022-10-22T13:41:49;99690.28;;;3.91;63.85
69980;BME280;57318;56.232;43.944;2022-10-22T13:44:16;99684.41;;;3.86;64.04
69980;BME280;57318;56.232;43.944;2022-10-22T13:46:42;99689.66;;;3.86;64.13
69980;BME280;57318;56.232;43.944;2022-10-22T13:49:15;99679.44;;;3.80;64.71
69980;BME280;57318;56.232;43.944;2022-10-22T13:51:42;99688.41;;;3.76;64.49
69980;BME280;57318;56.232;43.944;2022-10-22T13:54:15;99687.75;;;3.71;64.94
69980;BME280;57318;56.232;43.944;2022-10-22T13:56:42;99681.94;;;3.64;65.06
69980;BME280;57318;56.232;43.944;2022-10-22T13:59:08;99683.25;;;3.55;65.74
69980;BME280;57318;56.232;43.944;2022-10-22T14:01:35;99682.94;;;3.42;65.44
69980;BME280;57318;56.232;43.944;2022-10-22T14:04:03;99685.31;;;3.30;66.00
69980;BME280;57318;56.232;43.944;2022-10-22T14:06:30;99684.88;;;3.20;66.43
69980;BME280;57318;56.232;43.944;2022-10-22T14:09:03;99682.47;;;3.15;67.09
69980;BME280;57318;56.232;43.944;2022-10-22T14:11:29;99689.63;;;3.12;67.21
69980;BME280;57318;56.232;43.944;2022-10-22T14:13:57;99683.44;;;3.13;66.79
69980;BME280;57318;56.232;43.944;2022-10-22T14:16:25;99686.94;;;3.13;66.90
69980;BME280;57318;56.232;43.944;2022-10-22T14:18:52;99686.00;;;3.14;66.64
69980;BME280;57318;56.232;43.944;2022-10-22T14:21:19;99685.84;;;3.17;66.55
69980;BME280;57318;56.232;43.944;2022-10-22T14:23:46;99690.28;;;3.17;66.64
69980;BME280;57318;56.232;43.944;2022-10-22T14:26:27;99687.56;;;3.18;66.50
69980;BME280;57318;56.232;43.944;2022-10-22T14:28:54;99690.28;;;3.17;66.81
69980;BME280;57318;56.232;43.944;2022-10-22T14:31:20;99691.31;;;3.13;66.86
69980;BME280;57318;56.232;43.944;2022-10-22T14:33:46;99688.13;;;3.06;66.67
69980;BME280;57318;56.232;43.944;2022-10-22T14:36:12;99686.84;;;2.96;67.34
69980;BME280;57318;56.232;43.944;2022-10-22T14:38:39;99686.25;;;2.89;67.66